Time;durP1;ratioP1;P1;durP2;ratioP2;P2;SDS_P1;SDS_P2;PMS_P1;PMS_P2;Temp;Humidity;BMP_temperature;BMP_pressure;BME280_temperature;BME280_humidity;BME280_pressure;Samples;Min_cycle;Max_cycle;Signal;HPM_P1;HPM_P2
2021/10/26 00:01:00;;;;;;;89.00;27.38;;;;;;;10.71;96.11;101664.91;5033338;28;20033;-47
2021/10/26 00:03:26;;;;;;;88.93;29.25;;;;;;;10.73;96.50;101660.22;5034371;28;20030;-44
2021/10/26 00:05:51;;;;;;;106.85;30.48;;;;;;;10.69;96.71;101651.66;5034833;28;20029;-47
2021/10/26 00:08:16;;;;;;;97.68;29.30;;;;;;;10.69;97.19;101659.72;5049189;28;20444;-53
2021/10/26 00:10:42;;;;;;;103.15;31.42;;;;;;;10.70;97.24;101655.16;5046190;28;20029;-53
2021/10/26 00:13:07;;;;;;;104.50;32.65;;;;;;;10.68;97.46;101660.72;5039259;28;20453;-49
2021/10/26 00:15:32;;;;;;;100.80;31.90;;;;;;;10.68;97.49;101668.78;5052088;28;20057;-47
2021/10/26 00:17:58;;;;;;;102.53;30.45;;;;;;;10.67;97.52;101664.41;5043908;28;20025;-45
2021/10/26 00:20:23;;;;;;;90.93;30.38;;;;;;;10.66;97.86;101673.47;5041368;28;20017;-45
2021/10/26 00:22:49;;;;;;;109.03;31.50;;;;;;;10.66;97.67;101676.16;5044876;28;20033;-45
2021/10/26 00:25:14;;;;;;;111.60;30.60;;;;;;;10.63;98.01;101668.44;5036219;28;20052;-44
2021/10/26 00:27:39;;;;;;;106.03;29.55;;;;;;;10.61;97.88;101672.28;5036326;28;20033;-46
2021/10/26 00:30:06;;;;;;;125.90;29.75;;;;;;;10.58;97.95;101664.53;5036423;28;20033;-46
2021/10/26 00:32:32;;;;;;;110.43;30.90;;;;;;;10.58;97.86;101669.91;5036158;28;20051;-46
2021/10/26 00:34:57;;;;;;;105.88;29.08;;;;;;;10.54;98.13;101670.25;5035979;28;20021;-47
2021/10/26 00:37:23;;;;;;;117.22;29.50;;;;;;;10.51;97.96;101678.66;5041986;28;20075;-45
2021/10/26 00:39:49;;;;;;;101.72;29.35;;;;;;;10.52;98.05;101684.88;5055736;28;20120;-46
2021/10/26 00:42:16;;;;;;;103.00;29.52;;;;;;;10.52;98.14;101692.94;5039461;28;20112;-45
2021/10/26 00:44:41;;;;;;;114.53;30.90;;;;;;;10.53;98.10;101683.84;5042920;28;20053;-46
2021/10/26 00:47:07;;;;;;;100.32;27.17;;;;;;;10.53;98.38;101690.09;5053941;28;20024;-45
2021/10/26 00:49:33;;;;;;;107.50;28.77;;;;;;;10.53;98.30;101686.53;5054419;28;20499;-45
2021/10/26 00:51:59;;;;;;;109.55;27.88;;;;;;;10.51;98.50;101685.88;5052898;28;20037;-45
2021/10/26 00:54:25;;;;;;;97.05;27.10;;;;;;;10.52;98.55;101690.25;5054167;28;20059;-45
2021/10/26 00:56:51;;;;;;;88.22;26.33;;;;;;;10.51;98.50;101683.19;5051851;28;20075;-43
2021/10/26 00:59:16;;;;;;;103.32;27.02;;;;;;;10.48;98.77;101681.66;5055556;28;20064;-45
2021/10/26 01:01:41;;;;;;;95.75;24.55;;;;;;;10.46;98.49;101689.06;5040679;28;20053;-45
2021/10/26 01:04:07;;;;;;;93.15;25.20;;;;;;;10.42;98.64;101692.22;5035557;28;20116;-46
2021/10/26 01:06:34;;;;;;;86.75;24.48;;;;;;;10.40;98.60;101694.22;5036444;28;20021;-46
2021/10/26 01:08:59;;;;;;;93.10;25.20;;;;;;;10.36;98.42;101692.88;5055495;28;20021;-45
2021/10/26 01:11:25;;;;;;;94.72;25.80;;;;;;;10.33;98.65;101704.78;5041699;28;20056;-45
2021/10/26 01:13:50;;;;;;;101.28;26.23;;;;;;;10.31;98.67;101696.88;5035239;28;20068;-46
2021/10/26 01:16:16;;;;;;;104.75;26.67;;;;;;;10.29;98.61;101698.91;5035167;28;20053;-45
2021/10/26 01:18:41;;;;;;;89.50;25.95;;;;;;;10.26;98.57;101692.94;5039579;28;20108;-45
2021/10/26 01:21:06;;;;;;;97.82;26.40;;;;;;;10.22;98.58;101692.41;5034856;28;20036;-47
2021/10/26 01:23:32;;;;;;;89.43;25.92;;;;;;;10.17;98.38;101689.38;5053287;28;20432;-45
2021/10/26 01:25:58;;;;;;;99.25;26.65;;;;;;;10.13;98.55;101685.28;5054992;28;20036;-44
2021/10/26 01:28:23;;;;;;;92.15;25.52;;;;;;;10.10;98.69;101693.69;5039541;28;20061;-45
2021/10/26 01:30:49;;;;;;;89.47;27.08;;;;;;;10.03;98.46;101684.53;5034017;28;20377;-46
2021/10/26 01:33:14;;;;;;;96.00;25.25;;;;;;;9.99;98.50;101680.50;5047263;28;20079;-46
2021/10/26 01:35:41;;;;;;;102.65;24.70;;;;;;;9.91;98.25;101677.75;5054553;28;20017;-45
2021/10/26 01:38:07;;;;;;;102.00;24.90;;;;;;;9.87;98.07;101686.13;5039178;28;20039;-45
2021/10/26 01:40:33;;;;;;;82.95;25.45;;;;;;;9.85;98.24;101690.00;5038100;28;20037;-46
2021/10/26 01:42:58;;;;;;;89.28;27.05;;;;;;;9.84;98.26;101686.44;5045977;28;20025;-46
2021/10/26 01:45:24;;;;;;;89.53;25.77;;;;;;;9.80;98.44;101687.75;5054265;28;20136;-46
2021/10/26 01:47:49;;;;;;;87.57;24.08;;;;;;;9.74;98.20;101698.28;5054560;28;20060;-49
2021/10/26 01:50:17;;;;;;;100.60;24.52;;;;;;;9.69;98.20;101701.44;5054768;28;20374;-46
2021/10/26 01:52:42;;;;;;;94.00;24.17;;;;;;;9.67;98.38;101703.44;5054896;28;20035;-46
2021/10/26 01:55:10;;;;;;;98.80;24.17;;;;;;;9.68;98.19;101694.38;5054419;28;20103;-47
2021/10/26 01:57:35;;;;;;;98.57;25.23;;;;;;;9.63;98.32;101702.06;5054540;28;20029;-47
2021/10/26 02:00:07;;;;;;;73.22;23.50;;;;;;;9.58;98.38;101707.88;5051474;28;20039;-46
2021/10/26 02:02:33;;;;;;;69.25;22.48;;;;;;;9.59;98.43;101703.38;5062554;28;20036;-47
2021/10/26 02:04:59;;;;;;;84.40;23.25;;;;;;;9.58;98.32;101709.72;5057909;28;20029;-46
2021/10/26 02:07:24;;;;;;;86.47;22.20;;;;;;;9.59;98.48;101706.91;5036998;28;20033;-46
2021/10/26 02:09:49;;;;;;;87.07;24.17;;;;;;;9.58;98.60;101704.34;5034305;28;20022;-48
2021/10/26 02:12:15;;;;;;;91.25;23.73;;;;;;;9.59;98.71;101706.91;5043433;28;20072;-47
2021/10/26 02:14:41;;;;;;;91.28;23.40;;;;;;;9.59;98.46;101711.44;5045575;28;20041;-47
2021/10/26 02:17:06;;;;;;;104.03;24.23;;;;;;;9.61;98.81;101706.72;5034174;28;20435;-49
2021/10/26 02:19:32;;;;;;;101.53;23.40;;;;;;;9.64;98.75;101714.50;5045800;28;20543;-47
2021/10/26 02:21:58;;;;;;;103.47;23.98;;;;;;;9.65;99.10;101710.81;5053144;28;20033;-46
2021/10/26 02:24:23;;;;;;;90.75;23.08;;;;;;;9.69;98.87;101709.50;5053892;28;20032;-46
2021/10/26 02:26:49;;;;;;;101.32;24.40;;;;;;;9.73;99.17;101713.56;5043243;28;20025;-46
2021/10/26 02:29:14;;;;;;;78.63;23.23;;;;;;;9.72;99.11;101713.75;5034262;28;20112;-45
2021/10/26 02:31:40;;;;;;;80.28;23.73;;;;;;;9.70;98.97;101708.50;5034904;28;20069;-46
2021/10/26 02:34:05;;;;;;;82.40;21.58;;;;;;;9.65;99.11;101710.81;5036695;28;20481;-46
2021/10/26 02:36:31;;;;;;;83.13;22.92;;;;;;;9.58;99.05;101720.47;5054055;28;20364;-49
2021/10/26 02:38:56;;;;;;;83.65;23.55;;;;;;;9.57;99.06;101721.50;5053446;28;20048;-46
2021/10/26 02:41:22;;;;;;;73.03;21.80;;;;;;;9.54;98.94;101721.81;5038749;28;20473;-45
2021/10/26 02:43:47;;;;;;;79.03;21.40;;;;;;;9.50;99.07;101718.56;5047374;28;20037;-45
2021/10/26 02:46:13;;;;;;;83.25;22.77;;;;;;;9.52;98.64;101721.09;5052135;28;20023;-48
2021/10/26 02:48:40;;;;;;;82.13;21.85;;;;;;;9.51;99.01;101724.81;5046772;28;20026;-47
2021/10/26 02:51:06;;;;;;;89.53;22.48;;;;;;;9.48;98.87;101730.47;5053054;28;20032;-46
2021/10/26 02:53:31;;;;;;;84.68;22.55;;;;;;;9.46;98.86;101722.56;5053110;28;20029;-46
2021/10/26 02:55:56;;;;;;;94.05;21.98;;;;;;;9.42;98.62;101727.38;5043261;28;20140;-49
2021/10/26 02:58:22;;;;;;;97.70;22.23;;;;;;;9.45;98.51;101727.09;5033501;28;20029;-46
2021/10/26 03:00:48;;;;;;;72.63;21.80;;;;;;;9.44;99.06;101728.09;5045020;28;20037;-46
2021/10/26 03:03:14;;;;;;;93.85;21.40;;;;;;;9.45;98.86;101729.78;5034056;28;20040;-49
2021/10/26 03:05:40;;;;;;;77.28;21.40;;;;;;;9.41;98.84;101722.19;5034417;28;20025;-47
2021/10/26 03:08:05;;;;;;;78.30;21.67;;;;;;;9.38;98.93;101715.28;5033038;28;20120;-46
2021/10/26 03:10:30;;;;;;;88.55;21.15;;;;;;;9.35;98.82;101718.25;5040858;28;20029;-47
2021/10/26 03:12:56;;;;;;;103.47;27.55;;;;;;;9.33;98.63;101706.81;5048892;28;20025;-46
2021/10/26 03:15:21;;;;;;;87.75;22.60;;;;;;;9.30;98.77;101707.13;5052525;28;20029;-46
2021/10/26 03:17:46;;;;;;;96.28;26.40;;;;;;;9.29;98.57;101710.78;5047239;28;20038;-47
2021/10/26 03:20:12;;;;;;;140.55;42.60;;;;;;;9.31;98.94;101714.19;5032874;28;20087;-46
2021/10/26 03:22:37;;;;;;;149.60;42.88;;;;;;;9.30;98.77;101712.50;5045499;28;20115;-47
2021/10/26 03:25:04;;;;;;;177.63;48.10;;;;;;;9.30;98.64;101714.34;5052541;28;20021;-49
2021/10/26 03:27:30;;;;;;;144.82;41.72;;;;;;;9.29;98.60;101716.16;5052735;28;20036;-46
2021/10/26 03:29:55;;;;;;;125.63;39.65;;;;;;;9.26;98.61;101711.09;5040955;28;20095;-48
2021/10/26 03:32:21;;;;;;;126.35;37.38;;;;;;;9.21;98.72;101713.41;5039324;28;20025;-47
2021/10/26 03:34:46;;;;;;;109.57;32.70;;;;;;;9.19;98.85;101710.03;5035864;28;20063;-44
2021/10/26 03:37:11;;;;;;;98.10;27.33;;;;;;;9.22;98.39;101715.09;5033794;28;20029;-46
2021/10/26 03:39:37;;;;;;;89.88;24.60;;;;;;;9.21;98.61;101716.09;5033159;28;20373;-46
2021/10/26 03:42:02;;;;;;;83.07;21.85;;;;;;;9.22;98.60;101718.63;5034735;28;20455;-47
2021/10/26 03:44:28;;;;;;;75.10;21.73;;;;;;;9.21;98.92;101716.91;5038207;28;20460;-46
2021/10/26 03:46:53;;;;;;;72.70;20.02;;;;;;;9.17;98.78;101723.59;5043163;28;20841;-45
2021/10/26 03:49:19;;;;;;;82.03;20.30;;;;;;;9.15;98.79;101719.38;5052559;28;20021;-49
2021/10/26 03:51:44;;;;;;;70.53;18.42;;;;;;;9.13;98.77;101724.91;5052357;28;20051;-47
2021/10/26 03:54:10;;;;;;;76.75;17.63;;;;;;;9.13;98.80;101716.00;5051897;28;20036;-45
2021/10/26 03:56:35;;;;;;;70.95;19.95;;;;;;;9.11;98.64;101723.34;5051116;28;20031;-46
2021/10/26 03:59:04;;;;;;;86.68;18.55;;;;;;;9.07;98.75;101732.72;5050518;28;20060;-45
2021/10/26 04:01:31;;;;;;;79.13;17.83;;;;;;;9.10;98.44;101732.41;5040235;28;20045;-45
2021/10/26 04:03:56;;;;;;;75.25;17.67;;;;;;;9.12;98.45;101738.50;5032901;28;20026;-45
2021/10/26 04:06:24;;;;;;;69.90;18.52;;;;;;;9.12;98.55;101742.00;5035100;28;20121;-46
2021/10/26 04:08:55;;;;;;;66.10;16.30;;;;;;;9.14;98.58;101748.09;5032775;28;20071;-46
2021/10/26 04:11:22;;;;;;;75.28;16.55;;;;;;;9.19;98.66;101742.28;5050668;28;20037;-46
2021/10/26 04:13:48;;;;;;;65.32;16.85;;;;;;;9.25;98.89;101738.97;5049090;28;20029;-46
2021/10/26 04:16:14;;;;;;;77.68;17.35;;;;;;;9.25;98.89;101740.81;5035330;28;20523;-46
2021/10/26 04:18:40;;;;;;;82.60;18.48;;;;;;;9.27;99.02;101745.03;5032308;28;20044;-45
2021/10/26 04:21:07;;;;;;;88.50;18.17;;;;;;;9.28;98.82;101745.88;5030892;28;20033;-44
2021/10/26 04:23:34;;;;;;;91.50;19.20;;;;;;;9.31;99.13;101746.41;5031977;28;20075;-45
2021/10/26 04:26:00;;;;;;;84.00;19.80;;;;;;;9.33;98.98;101740.91;5032290;28;20403;-45
2021/10/26 04:28:25;;;;;;;86.47;20.70;;;;;;;9.35;98.86;101744.28;5040939;28;20104;-45
2021/10/26 04:30:50;;;;;;;81.15;19.27;;;;;;;9.35;98.82;101750.50;5050731;28;20061;-46
2021/10/26 04:33:16;;;;;;;89.28;21.52;;;;;;;9.36;99.10;101752.19;5050387;28;20060;-48
2021/10/26 04:35:42;;;;;;;87.22;20.90;;;;;;;9.37;99.12;101756.56;5050716;28;20029;-47
2021/10/26 04:38:07;;;;;;;85.47;19.90;;;;;;;9.36;99.13;101760.25;5050550;28;20025;-47
2021/10/26 04:40:33;;;;;;;93.70;21.10;;;;;;;9.37;99.06;101744.97;5038764;28;20526;-46
2021/10/26 04:42:59;;;;;;;103.78;20.77;;;;;;;9.37;98.98;101750.34;5034222;28;20033;-45
2021/10/26 04:45:25;;;;;;;81.55;19.60;;;;;;;9.36;99.09;101754.88;5037874;28;20051;-45
2021/10/26 04:47:51;;;;;;;107.68;21.15;;;;;;;9.35;99.29;101753.19;5042442;28;20403;-48
2021/10/26 04:50:17;;;;;;;98.57;21.27;;;;;;;9.33;98.88;101760.53;5032123;28;20029;-45
2021/10/26 04:52:42;;;;;;;106.72;22.50;;;;;;;9.35;98.54;101769.31;5048261;28;20040;-45
2021/10/26 04:55:08;;;;;;;117.38;24.38;;;;;;;9.34;98.95;101777.50;5052031;28;20028;-44
2021/10/26 04:57:33;;;;;;;108.65;24.13;;;;;;;9.33;98.79;101773.97;5035584;28;20029;-46
2021/10/26 04:59:59;;;;;;;131.55;24.95;;;;;;;9.30;98.88;101771.59;5051570;28;20025;-46
2021/10/26 05:02:24;;;;;;;100.68;24.30;;;;;;;9.27;99.09;101777.28;5043730;28;20053;-47
2021/10/26 05:04:50;;;;;;;105.82;25.73;;;;;;;9.23;99.13;101779.41;5042022;28;20037;-46
2021/10/26 05:07:16;;;;;;;97.55;24.65;;;;;;;9.21;99.29;101775.16;5049049;28;20037;-47
2021/10/26 05:09:42;;;;;;;94.85;23.90;;;;;;;9.20;99.29;101776.19;5051012;28;20040;-48
2021/10/26 05:12:07;;;;;;;119.35;26.85;;;;;;;9.17;99.04;101776.50;5047349;28;20033;-47
2021/10/26 05:14:32;;;;;;;114.45;27.63;;;;;;;9.14;99.12;101772.25;5043983;28;20064;-47
2021/10/26 05:16:58;;;;;;;124.15;28.17;;;;;;;9.13;99.16;101780.44;5045832;28;20529;-45
2021/10/26 05:19:25;;;;;;;104.97;26.85;;;;;;;9.14;99.12;101776.78;5040384;28;20029;-46
2021/10/26 05:21:50;;;;;;;108.28;27.75;;;;;;;9.13;99.14;101781.28;5040373;28;20036;-47
2021/10/26 05:24:16;;;;;;;91.65;27.35;;;;;;;9.12;99.15;101789.50;5048434;28;20025;-49
2021/10/26 05:26:41;;;;;;;98.55;27.83;;;;;;;9.14;98.79;101788.38;5045310;28;20109;-47
2021/10/26 05:29:10;;;;;;;119.43;28.75;;;;;;;9.16;99.15;101791.75;5054631;28;20037;-46
2021/10/26 05:31:37;;;;;;;124.57;29.58;;;;;;;9.18;98.94;101802.34;5036757;28;20025;-46
2021/10/26 05:34:05;;;;;;;115.20;28.40;;;;;;;9.20;99.26;101806.56;5048360;28;20041;-47
2021/10/26 05:36:30;;;;;;;108.20;26.98;;;;;;;9.20;99.22;101800.34;5054723;28;20017;-48
2021/10/26 05:38:55;;;;;;;109.30;28.15;;;;;;;9.20;99.23;101806.56;5039195;28;20044;-46
2021/10/26 05:41:21;;;;;;;110.95;27.67;;;;;;;9.18;99.04;101807.72;5034277;28;20026;-47
2021/10/26 05:43:46;;;;;;;111.13;28.10;;;;;;;9.17;99.21;101820.28;5035907;28;20060;-47
2021/10/26 05:46:11;;;;;;;105.72;27.30;;;;;;;9.17;98.94;101822.16;5034452;28;20017;-44
2021/10/26 05:48:50;;;;;;;100.72;29.67;;;;;;;9.17;98.92;101820.28;5151434;27;20745;-46
2021/10/26 05:51:16;;;;;;;102.60;27.98;;;;;;;9.19;99.20;101806.72;5131049;27;20089;-44
2021/10/26 05:53:41;;;;;;;106.95;29.55;;;;;;;9.18;99.08;101799.66;5129334;28;20019;-46
2021/10/26 05:56:07;;;;;;;90.13;27.77;;;;;;;9.17;98.97;101803.34;5128652;28;20107;-45
2021/10/26 05:58:32;;;;;;;99.43;27.65;;;;;;;9.14;98.84;101792.91;5129627;28;20110;-44
2021/10/26 06:00:57;;;;;;;92.82;27.65;;;;;;;9.13;99.13;101796.56;5130487;28;20102;-46
2021/10/26 06:03:23;;;;;;;100.10;28.92;;;;;;;9.13;99.02;101788.50;5130612;28;20083;-44
2021/10/26 06:05:48;;;;;;;101.00;26.33;;;;;;;9.13;98.80;101791.19;5110862;28;20072;-45
2021/10/26 06:08:13;;;;;;;88.15;26.17;;;;;;;9.11;99.01;101798.53;5112865;28;20023;-48
2021/10/26 06:10:44;;;;;;;87.28;25.25;;;;;;;9.12;98.69;101805.63;5131725;28;20073;-45
2021/10/26 06:13:12;;;;;;;96.10;26.00;;;;;;;9.13;98.68;101812.69;5114593;28;20096;-44
2021/10/26 06:15:39;;;;;;;89.50;25.05;;;;;;;9.12;98.59;101795.72;5131797;28;20441;-45
2021/10/26 06:18:05;;;;;;;89.95;25.00;;;;;;;9.11;98.51;101790.50;5131875;28;20394;-45
2021/10/26 06:20:30;;;;;;;105.60;27.13;;;;;;;9.10;98.82;101803.06;5113753;28;20042;-49
2021/10/26 06:22:56;;;;;;;95.93;24.85;;;;;;;9.09;98.81;101803.25;5131028;28;20107;-46
2021/10/26 06:25:21;;;;;;;79.43;24.33;;;;;;;9.08;98.64;101806.91;5130058;28;20080;-45
2021/10/26 06:27:46;;;;;;;87.03;25.55;;;;;;;9.07;98.25;101813.28;5130026;28;20059;-44
2021/10/26 06:30:12;;;;;;;76.40;23.88;;;;;;;9.05;98.22;101807.22;5094663;28;20031;-45
2021/10/26 06:32:41;;;;;;;89.43;23.48;;;;;;;9.02;98.48;101806.50;5129920;28;20023;-45
2021/10/26 06:35:08;;;;;;;89.68;24.60;;;;;;;9.01;98.42;101806.66;5111942;28;20024;-45
2021/10/26 06:37:35;;;;;;;77.78;22.83;;;;;;;8.99;98.27;101828.28;5126979;28;20426;-45
2021/10/26 06:40:01;;;;;;;92.03;24.97;;;;;;;9.02;98.70;101827.97;5127461;28;20027;-45
2021/10/26 06:42:26;;;;;;;79.15;25.95;;;;;;;9.02;98.40;101825.31;5111812;28;20292;-43
2021/10/26 06:44:52;;;;;;;93.03;23.80;;;;;;;9.06;98.33;101819.63;5123166;28;20076;-45
2021/10/26 06:47:18;;;;;;;84.30;26.88;;;;;;;9.03;98.42;101823.47;5107756;28;20358;-45
2021/10/26 06:49:45;;;;;;;73.65;25.45;;;;;;;9.04;97.97;101813.59;5107549;28;20089;-45
2021/10/26 06:52:11;;;;;;;73.50;25.48;;;;;;;9.09;97.99;101832.78;5109314;28;20073;-46
2021/10/26 06:54:36;;;;;;;73.00;25.63;;;;;;;9.14;98.00;101827.81;5104790;28;20019;-45
2021/10/26 06:57:01;;;;;;;86.97;28.27;;;;;;;9.20;98.12;101835.28;5091250;28;20036;-48
2021/10/26 06:59:27;;;;;;;72.20;26.17;;;;;;;9.27;97.94;101835.50;5099134;28;20119;-45
2021/10/26 07:01:52;;;;;;;88.28;27.02;;;;;;;9.35;97.70;101832.94;5083512;28;20058;-45
2021/10/26 07:04:19;;;;;;;71.88;26.27;;;;;;;9.34;97.94;101834.75;5093612;28;20523;-46
2021/10/26 07:06:44;;;;;;;70.32;25.73;;;;;;;9.41;97.68;101835.88;5094974;28;20020;-45
2021/10/26 07:09:09;;;;;;;78.57;26.02;;;;;;;9.45;97.34;101833.72;5094911;28;20084;-45
2021/10/26 07:11:35;;;;;;;64.55;27.08;;;;;;;9.54;97.41;101845.41;5090863;28;20024;-47
2021/10/26 07:14:00;;;;;;;70.82;26.15;;;;;;;9.64;97.11;101854.28;5094488;28;20077;-45
2021/10/26 07:16:25;;;;;;;66.25;25.00;;;;;;;9.66;96.77;101853.13;5094560;28;20341;-46
2021/10/26 07:18:52;;;;;;;65.18;26.10;;;;;;;9.75;96.40;101851.38;5094005;28;20036;-44
2021/10/26 07:21:18;;;;;;;62.35;24.38;;;;;;;9.79;96.01;101851.91;5094568;28;20028;-44
2021/10/26 07:23:44;;;;;;;58.63;23.23;;;;;;;9.82;95.69;101846.22;5089506;28;20112;-45
2021/10/26 07:26:09;;;;;;;63.75;24.35;;;;;;;9.93;95.90;101848.69;5074936;28;20039;-45
2021/10/26 07:28:35;;;;;;;71.78;23.85;;;;;;;9.96;95.39;101856.44;5085467;28;20029;-45
2021/10/26 07:31:00;;;;;;;62.50;23.45;;;;;;;10.00;95.14;101862.34;5093816;28;20027;-45
2021/10/26 07:33:28;;;;;;;59.10;20.13;;;;;;;10.04;94.70;101863.75;5087591;28;20028;-46
2021/10/26 07:35:55;;;;;;;49.28;20.08;;;;;;;10.08;94.68;101863.31;5094563;28;20032;-47
2021/10/26 07:41:15;;;;;;;55.58;21.73;;;;;;;10.03;94.89;101862.91;5081137;28;20744;-45
2021/10/26 07:43:41;;;;;;;50.75;20.77;;;;;;;10.06;94.92;101870.69;5094507;28;20301;-46
2021/10/26 07:46:06;;;;;;;59.78;20.88;;;;;;;10.00;94.55;101865.03;5092717;28;20047;-45
2021/10/26 07:48:32;;;;;;;54.90;19.63;;;;;;;9.99;94.89;101863.38;5111244;28;20050;-45
2021/10/26 07:51:00;;;;;;;53.13;20.58;;;;;;;10.06;95.09;101869.84;5114768;28;20118;-45
2021/10/26 07:53:26;;;;;;;50.95;19.48;;;;;;;10.08;94.98;101866.00;5114577;28;20027;-45
2021/10/26 07:55:52;;;;;;;58.63;20.13;;;;;;;10.15;95.01;101862.69;5114380;28;20085;-46
2021/10/26 07:58:18;;;;;;;63.35;19.10;;;;;;;10.17;95.20;101860.69;5114108;28;20027;-48
2021/10/26 08:00:43;;;;;;;72.28;19.08;;;;;;;10.22;94.94;101864.59;5113775;28;20031;-46
2021/10/26 08:03:08;;;;;;;46.63;16.98;;;;;;;10.28;94.91;101858.63;5111653;28;20028;-45
2021/10/26 08:05:34;;;;;;;41.80;15.93;;;;;;;10.32;94.39;101860.00;5106874;28;20020;-46
2021/10/26 08:07:59;;;;;;;46.08;15.23;;;;;;;10.39;94.16;101860.22;5093472;28;20032;-47
2021/10/26 08:10:26;;;;;;;46.08;15.00;;;;;;;10.46;94.05;101865.84;5112925;28;20020;-46
2021/10/26 08:12:51;;;;;;;39.17;14.93;;;;;;;10.55;93.64;101864.88;5108331;28;20039;-45
2021/10/26 08:15:17;;;;;;;42.58;14.15;;;;;;;10.67;93.09;101869.03;5114933;28;20065;-46
2021/10/26 08:17:42;;;;;;;36.50;12.40;;;;;;;10.66;92.01;101872.69;5115609;28;20031;-48
2021/10/26 08:20:08;;;;;;;38.03;12.05;;;;;;;10.74;92.38;101877.31;5104843;28;20116;-46
2021/10/26 08:22:38;;;;;;;44.30;12.38;;;;;;;10.72;92.15;101877.47;5115279;28;20020;-47
2021/10/26 08:25:09;;;;;;;38.20;12.70;;;;;;;10.68;92.44;101876.09;5113515;28;20059;-47
2021/10/26 08:27:36;;;;;;;37.03;12.13;;;;;;;10.65;92.53;101867.50;5111811;28;20035;-47
2021/10/26 08:37:54;;;;;;;44.58;11.80;;;;;;;10.82;92.25;101871.13;5113810;28;20511;-48
2021/10/26 08:40:20;;;;;;;34.85;11.70;;;;;;;10.80;91.88;101874.00;5080064;28;20375;-46
2021/10/26 08:42:47;;;;;;;35.83;11.82;;;;;;;10.88;92.00;101876.75;5106386;28;20032;-47
2021/10/26 08:45:13;;;;;;;37.33;11.90;;;;;;;10.88;92.21;101870.50;5101936;28;20062;-48
2021/10/26 08:47:41;;;;;;;38.67;12.50;;;;;;;10.83;92.02;101868.28;5111612;28;20083;-45
2021/10/26 08:50:07;;;;;;;28.55;11.25;;;;;;;10.88;92.14;101865.13;5095563;28;20031;-45
2021/10/26 08:52:32;;;;;;;48.25;13.18;;;;;;;10.85;92.14;101854.66;5100475;28;20153;-44
2021/10/26 08:54:58;;;;;;;34.90;13.45;;;;;;;10.92;92.04;101861.09;5112276;28;20114;-45
2021/10/26 08:57:25;;;;;;;46.13;13.68;;;;;;;10.94;91.82;101861.78;5112356;28;20482;-45
2021/10/26 08:59:52;;;;;;;41.92;13.77;;;;;;;10.88;92.05;101865.97;5108102;28;20028;-45
2021/10/26 09:02:17;;;;;;;38.13;14.20;;;;;;;10.88;92.10;101865.13;5107801;28;20474;-44
2021/10/26 09:04:45;;;;;;;38.28;13.40;;;;;;;10.90;91.68;101865.78;5112722;28;20023;-47
2021/10/26 09:07:20;;;;;;;30.43;12.83;;;;;;;11.01;91.38;101859.31;5105393;28;20089;-46
2021/10/26 09:09:45;;;;;;;39.53;13.00;;;;;;;11.00;91.53;101871.91;5112549;28;20023;-44
2021/10/26 09:17:47;;;;;;;47.08;13.02;;;;;;;11.07;91.40;101870.28;5092278;28;20095;-47
2021/10/26 09:20:21;;;;;;;40.33;12.73;;;;;;;11.05;91.08;101866.91;5098364;28;20432;-44
2021/10/26 09:22:54;;;;;;;32.25;13.43;;;;;;;11.01;91.60;101870.94;5112063;28;20041;-43
2021/10/26 09:25:20;;;;;;;43.90;15.02;;;;;;;11.01;92.10;101881.69;5112392;28;20118;-45
2021/10/26 09:27:47;;;;;;;40.97;14.68;;;;;;;11.02;92.40;101879.84;5108617;28;20065;-44
2021/10/26 09:30:15;;;;;;;42.42;16.48;;;;;;;10.98;93.04;101879.34;5108350;28;20492;-46
2021/10/26 09:32:46;;;;;;;41.55;17.70;;;;;;;10.90;93.04;101874.75;5113084;28;20026;-45
2021/10/26 09:35:14;;;;;;;36.28;16.45;;;;;;;10.88;93.35;101884.81;5109758;28;20104;-45
2021/10/26 09:37:49;;;;;;;41.10;17.75;;;;;;;10.86;94.10;101875.22;5106244;28;20051;-46
2021/10/26 09:40:15;;;;;;;39.67;19.10;;;;;;;10.87;94.28;101884.97;5110246;28;20060;-45
2021/10/26 09:42:49;;;;;;;47.72;20.33;;;;;;;10.84;94.17;101869.13;5109804;28;20122;-44
2021/10/26 09:45:23;;;;;;;44.60;20.85;;;;;;;10.90;94.36;101868.47;5112105;28;20047;-44
2021/10/26 09:47:51;;;;;;;50.38;21.25;;;;;;;11.07;94.30;101866.75;5112108;28;20051;-44
2021/10/26 09:50:16;;;;;;;43.38;20.10;;;;;;;11.10;94.02;101874.50;5112629;28;20065;-44
2021/10/26 09:52:44;;;;;;;44.58;19.67;;;;;;;10.98;93.52;101860.47;5112691;28;20107;-44
2021/10/26 09:57:46;;;;;;;53.08;19.80;;;;;;;11.14;93.37;101855.16;5113004;28;20047;-44
2021/10/26 10:00:12;;;;;;;38.25;18.70;;;;;;;11.26;93.35;101846.78;5112522;28;20555;-43
2021/10/26 10:02:38;;;;;;;43.38;18.27;;;;;;;11.38;93.22;101850.91;5100389;28;20103;-44
2021/10/26 10:05:05;;;;;;;42.30;15.90;;;;;;;11.49;92.02;101837.13;5094915;28;20208;-44
2021/10/26 10:07:36;;;;;;;37.05;15.38;;;;;;;11.70;91.69;101838.53;5112961;28;20065;-44
2021/10/26 10:10:11;;;;;;;25.73;13.43;;;;;;;12.05;91.55;101843.66;5103545;28;20032;-45
2021/10/26 10:12:42;;;;;;;33.30;12.43;;;;;;;12.30;88.98;101846.41;5112537;28;20024;-44
2021/10/26 10:15:08;;;;;;;24.33;11.43;;;;;;;12.54;87.87;101852.81;5113368;28;20024;-45
2021/10/26 10:17:36;;;;;;;41.08;11.50;;;;;;;12.58;86.62;101859.53;5113014;28;20100;-44
2021/10/26 10:20:05;;;;;;;23.70;9.57;;;;;;;12.49;86.43;101856.84;5084960;28;20028;-45
2021/10/26 10:22:32;;;;;;;27.17;10.68;;;;;;;12.52;86.79;101858.34;5106509;28;20108;-45
2021/10/26 10:24:59;;;;;;;23.90;9.50;;;;;;;12.57;86.32;101855.16;5097254;28;20024;-45
2021/10/26 10:27:33;;;;;;;27.55;9.85;;;;;;;12.62;87.25;101850.91;5099297;28;20024;-44
2021/10/26 10:29:59;;;;;;;27.25;9.60;;;;;;;12.64;86.09;101842.66;5092525;28;20472;-46
2021/10/26 10:32:27;;;;;;;23.35;8.77;;;;;;;12.73;85.58;101845.16;5092337;28;20073;-45
2021/10/26 10:34:54;;;;;;;27.88;8.73;;;;;;;12.74;85.87;101846.88;5094885;28;20107;-47
2021/10/26 10:37:22;;;;;;;24.13;9.77;;;;;;;12.85;85.01;101850.19;5096285;28;20104;-47
2021/10/26 10:39:48;;;;;;;31.92;8.57;;;;;;;12.72;84.78;101856.16;5116659;28;20038;-45
2021/10/26 10:42:25;;;;;;;22.85;9.38;;;;;;;12.66;85.06;101854.13;5095490;28;20023;-47
2021/10/26 10:44:55;;;;;;;23.08;8.48;;;;;;;12.78;84.88;101854.63;5097884;28;20023;-45
2021/10/26 10:47:41;;;;;;;27.92;9.00;;;;;;;12.86;83.68;101854.59;5107130;28;20055;-45
2021/10/26 10:50:18;;;;;;;25.77;7.90;;;;;;;12.86;83.67;101852.72;5106152;28;20034;-45
2021/10/26 10:52:44;;;;;;;35.58;9.48;;;;;;;12.84;83.36;101843.94;5115790;28;20023;-46
2021/10/26 10:55:23;;;;;;;28.10;8.88;;;;;;;13.12;83.67;101849.78;5112367;28;20027;-46
2021/10/26 10:57:49;;;;;;;23.55;7.45;;;;;;;13.34;82.39;101856.31;5115513;28;20031;-44
2021/10/26 11:00:25;;;;;;;26.15;7.53;;;;;;;13.42;81.22;101843.78;5115484;28;20133;-45
2021/10/26 11:02:52;;;;;;;26.38;7.82;;;;;;;13.52;81.00;101852.53;5113072;28;20019;-47
2021/10/26 11:05:36;;;;;;;24.10;7.15;;;;;;;13.50;81.47;101859.97;5114716;28;20470;-45
2021/10/26 11:08:03;;;;;;;28.60;8.35;;;;;;;13.29;80.96;101856.00;5115618;28;20027;-47
2021/10/26 11:10:50;;;;;;;24.70;8.15;;;;;;;13.11;81.95;101852.66;5114793;28;20059;-45
2021/10/26 11:13:26;;;;;;;25.45;8.60;;;;;;;13.02;82.68;101856.41;5114239;28;20076;-45
2021/10/26 11:15:53;;;;;;;29.23;8.90;;;;;;;12.90;83.24;101855.91;5106260;28;20463;-44
2021/10/26 11:18:36;;;;;;;21.90;7.90;;;;;;;12.84;83.70;101840.41;5094476;28;20067;-45
2021/10/26 11:21:27;;;;;;;26.15;10.07;;;;;;;12.85;83.72;101845.66;5094527;28;20040;-46
2021/10/26 11:23:58;;;;;;;25.40;9.30;;;;;;;12.84;84.08;101840.41;5094492;28;20429;-44
2021/10/26 11:26:43;;;;;;;28.20;9.43;;;;;;;12.83;83.87;101846.84;5112043;28;20048;-48
2021/10/26 11:29:11;;;;;;;29.73;8.73;;;;;;;12.87;84.44;101840.91;5105387;28;20039;-44